createdAt,value
2019-05-14T00:00:44.024Z,86.92
2019-05-14T00:03:15.769Z,86.66
2019-05-14T00:05:47.108Z,86.58
2019-05-14T00:08:18.427Z,86.71
2019-05-14T00:10:51.810Z,86.39
2019-05-14T00:13:22.766Z,86.86
2019-05-14T00:15:54.168Z,86.83
2019-05-14T00:18:25.706Z,86.72
2019-05-14T00:20:57.399Z,86.68
2019-05-14T00:23:28.648Z,87.00
2019-05-14T00:26:01.672Z,87.22
2019-05-14T00:28:33.233Z,86.87
2019-05-14T00:31:05.094Z,86.99
2019-05-14T00:33:36.617Z,86.53
2019-05-14T00:36:08.144Z,86.22
2019-05-14T00:38:41.783Z,86.28
2019-05-14T00:41:12.781Z,85.83
2019-05-14T00:43:44.236Z,85.90
2019-05-14T00:46:15.572Z,85.84
2019-05-14T00:48:47.023Z,85.93
2019-05-14T00:51:18.464Z,85.84
2019-05-14T00:53:51.588Z,85.71
2019-05-14T00:56:23.016Z,85.83
2019-05-14T00:58:54.421Z,86.06
2019-05-14T01:01:25.823Z,86.28
2019-05-14T01:03:57.318Z,86.10
2019-05-14T01:06:31.280Z,85.98
2019-05-14T01:09:01.682Z,85.92
2019-05-14T01:11:33.819Z,85.82
2019-05-14T01:14:05.221Z,85.85
2019-05-14T01:16:36.708Z,85.65
2019-05-14T01:19:08.011Z,85.69
2019-05-14T01:21:41.609Z,85.69
2019-05-14T01:24:12.695Z,85.94
2019-05-14T01:26:44.200Z,85.77
2019-05-14T01:29:15.796Z,85.87
2019-05-14T01:31:47.129Z,85.82
2019-05-14T01:34:18.533Z,85.89
2019-05-14T01:36:50.024Z,86.03
2019-05-14T01:39:21.888Z,86.09
2019-05-14T01:41:53.404Z,86.27
2019-05-14T01:44:24.778Z,86.43
2019-05-14T01:46:57.288Z,86.69
2019-05-14T01:49:28.826Z,86.26
2019-05-14T01:52:01.787Z,86.30
2019-05-14T01:54:33.457Z,86.33
2019-05-14T01:57:04.812Z,85.95
2019-05-14T01:59:36.258Z,86.07
2019-05-14T02:02:07.615Z,86.04
2019-05-14T02:04:38.961Z,86.04
2019-05-14T02:07:11.547Z,85.90
2019-05-14T02:09:43.226Z,85.85
2019-05-14T02:12:15.679Z,85.87
2019-05-14T02:14:47.231Z,86.12
2019-05-14T02:17:18.671Z,86.10
2019-05-14T02:19:51.537Z,86.06
2019-05-14T02:22:23.152Z,85.93
2019-05-14T02:24:54.560Z,85.30
2019-05-14T02:27:25.831Z,84.46
2019-05-14T02:29:57.257Z,83.74
2019-05-14T02:32:29.817Z,82.79
2019-05-14T02:35:01.389Z,80.87
2019-05-14T02:37:32.757Z,78.50
2019-05-14T02:40:09.620Z,77.95
2019-05-14T02:42:40.419Z,76.27
2019-05-14T02:45:12.498Z,74.70
2019-05-14T02:47:43.875Z,74.96
2019-05-14T02:50:15.420Z,73.58
2019-05-14T02:52:49.719Z,73.94
2019-05-14T02:55:20.153Z,71.58
2019-05-14T02:57:51.595Z,70.15
2019-05-14T03:00:23.172Z,70.54
2019-05-14T03:02:54.531Z,71.48
2019-05-14T03:05:29.324Z,70.91
2019-05-14T03:07:59.951Z,70.33
2019-05-14T03:10:31.553Z,69.47
2019-05-14T03:13:03.002Z,68.31
2019-05-14T03:15:34.440Z,69.09
2019-05-14T03:18:05.775Z,68.14
2019-05-14T03:20:39.117Z,68.69
2019-05-14T03:23:18.161Z,67.47
2019-05-14T03:25:43.480Z,66.67
2019-05-14T03:28:14.863Z,66.02
2019-05-14T03:30:51.380Z,66.35
2019-05-14T03:33:21.882Z,66.13
2019-05-14T03:36:01.591Z,66.95
2019-05-14T03:38:29.347Z,66.24
2019-05-14T03:41:00.515Z,65.92
2019-05-14T03:43:31.993Z,66.89
2019-05-14T03:46:03.433Z,63.71
2019-05-14T03:48:34.877Z,64.23
2019-05-14T03:51:08.958Z,65.87
2019-05-14T03:53:55.081Z,66.24
2019-05-14T03:56:12.456Z,63.52
2019-05-14T03:58:43.853Z,65.13
2019-05-14T04:01:15.454Z,65.36
2019-05-14T04:03:50.051Z,67.94
2019-05-14T04:06:19.580Z,65.96
2019-05-14T04:08:51.816Z,62.64
2019-05-14T04:11:25.469Z,63.81
2019-05-14T04:14:00.381Z,65.48
2019-05-14T04:16:34.643Z,64.62
2019-05-14T04:19:09.990Z,67.77
2019-05-14T04:21:41.846Z,68.50
2019-05-14T04:24:15.073Z,68.64
2019-05-14T04:27:02.074Z,69.57
2019-05-14T04:29:25.027Z,69.45
2019-05-14T04:32:00.210Z,71.30
2019-05-14T04:34:31.210Z,70.18
2019-05-14T04:37:03.488Z,70.02
2019-05-14T04:39:34.933Z,72.72
2019-05-14T04:42:09.265Z,71.56
2019-05-14T04:44:40.520Z,72.10
2019-05-14T04:47:26.313Z,71.85
2019-05-14T04:49:44.573Z,72.96
2019-05-14T04:52:20.252Z,71.22
2019-05-14T04:54:50.345Z,72.59
2019-05-14T04:57:25.491Z,72.86
2019-05-14T04:59:55.118Z,72.19
2019-05-14T05:02:29.822Z,71.92
2019-05-14T05:04:59.654Z,72.45
2019-05-14T05:07:31.097Z,71.58
2019-05-14T05:10:02.488Z,72.16
2019-05-14T05:12:33.803Z,71.74
2019-05-14T05:15:09.433Z,72.30
2019-05-14T05:17:48.014Z,72.44
2019-05-14T05:20:14.604Z,72.79
2019-05-14T05:22:48.365Z,72.82
2019-05-14T05:25:19.052Z,72.24
2019-05-14T05:27:50.444Z,71.72
2019-05-14T05:30:21.999Z,72.82
2019-05-14T05:32:53.421Z,72.28
2019-05-14T05:35:25.208Z,72.83
2019-05-14T05:37:58.344Z,73.13
2019-05-14T05:40:29.895Z,72.36
2019-05-14T05:43:01.388Z,71.25
2019-05-14T05:45:32.832Z,71.14
2019-05-14T05:48:04.154Z,70.80
2019-05-14T05:50:35.529Z,70.38
2019-05-14T05:53:09.010Z,70.40
2019-05-14T05:55:39.824Z,70.48
2019-05-14T05:58:11.280Z,70.72
2019-05-14T06:00:42.655Z,70.51
2019-05-14T06:03:13.965Z,69.67
2019-05-14T06:05:45.372Z,69.35
2019-05-14T06:08:18.900Z,70.00
2019-05-14T06:10:49.892Z,68.73
2019-05-14T06:13:21.421Z,68.99
2019-05-14T06:15:52.786Z,69.61
2019-05-14T06:18:24.154Z,68.93
2019-05-14T06:20:55.605Z,68.42
2019-05-14T06:23:28.425Z,69.19
2019-05-14T06:26:00.300Z,68.70
2019-05-14T06:28:33.660Z,68.67
2019-05-14T06:31:05.339Z,68.11
2019-05-14T06:33:39.121Z,67.96
2019-05-14T06:36:14.182Z,67.47
2019-05-14T06:38:43.645Z,67.06
2019-05-14T06:41:15.036Z,66.90
2019-05-14T06:43:48.734Z,66.16
2019-05-14T06:46:19.565Z,65.75
2019-05-14T06:48:50.898Z,65.77
2019-05-14T06:51:22.383Z,65.55
2019-05-14T06:53:53.791Z,65.67
2019-05-14T06:56:25.240Z,65.37
2019-05-14T06:58:58.510Z,65.28
2019-05-14T07:01:32.639Z,65.30
2019-05-14T07:04:04.399Z,64.57
2019-05-14T07:06:51.818Z,64.76
2019-05-14T07:09:38.433Z,64.17
2019-05-14T07:12:14.432Z,63.76
2019-05-14T07:14:48.212Z,63.33
2019-05-14T07:17:19.911Z,64.19
2019-05-14T07:19:51.425Z,64.25
2019-05-14T07:22:22.890Z,63.53
2019-05-14T07:24:54.277Z,63.20
2019-05-14T07:27:28.258Z,62.68
2019-05-14T07:29:59.762Z,62.44
2019-05-14T07:32:31.087Z,62.97
2019-05-14T07:35:02.453Z,62.49
2019-05-14T07:37:34.012Z,62.34
2019-05-14T07:40:08.571Z,61.67
2019-05-14T07:42:39.637Z,61.35
2019-05-14T07:45:11.256Z,61.51
2019-05-14T07:47:42.722Z,61.71
2019-05-14T07:50:14.767Z,61.73
2019-05-14T07:52:46.274Z,61.23
2019-05-14T07:55:18.610Z,61.25
2019-05-14T07:57:50.472Z,61.11
2019-05-14T08:00:22.943Z,60.73
2019-05-14T08:02:54.354Z,59.92
2019-05-14T08:05:25.837Z,60.45
2019-05-14T08:07:58.577Z,59.91
2019-05-14T08:10:30.319Z,60.19
2019-05-14T08:13:01.731Z,58.60
2019-05-14T08:15:34.283Z,59.30
2019-05-14T08:18:07.909Z,60.69
2019-05-14T08:20:38.850Z,58.90
2019-05-14T08:23:10.433Z,58.82
2019-05-14T08:25:41.946Z,58.58
2019-05-14T08:28:13.272Z,58.73
2019-05-14T08:30:44.633Z,57.50
2019-05-14T08:33:18.273Z,57.48
2019-05-14T08:35:49.043Z,57.59
2019-05-14T08:38:20.705Z,56.77
2019-05-14T08:40:52.293Z,56.37
2019-05-14T08:43:23.824Z,55.55
2019-05-14T08:45:55.150Z,55.10
2019-05-14T08:48:29.306Z,54.13
2019-05-14T08:50:58.917Z,54.01
2019-05-14T08:53:30.009Z,53.92
2019-05-14T08:56:01.513Z,53.93
2019-05-14T08:58:32.968Z,53.95
2019-05-14T09:01:04.545Z,53.31
2019-05-14T09:03:36.066Z,53.01
2019-05-14T09:06:09.347Z,52.35
2019-05-14T09:08:41.812Z,52.46
2019-05-14T09:11:13.741Z,52.01
2019-05-14T09:13:45.165Z,52.45
2019-05-14T09:19:15.510Z,51.57
2019-05-14T09:21:49.368Z,51.66
2019-05-14T09:24:19.919Z,52.32
2019-05-14T09:26:51.374Z,52.12
2019-05-14T09:29:26.119Z,51.45
2019-05-14T09:31:58.975Z,51.81
2019-05-14T09:34:30.031Z,52.55
2019-05-14T09:37:01.459Z,50.80
2019-05-14T09:39:32.836Z,50.59
2019-05-14T09:42:04.176Z,45.73
2019-05-14T09:44:35.660Z,45.93
2019-05-14T09:47:08.612Z,46.25
2019-05-14T09:49:41.362Z,46.52
2019-05-14T09:52:12.823Z,47.35
2019-05-14T09:54:44.349Z,46.20
2019-05-14T09:57:15.816Z,47.90
2019-05-14T09:59:47.985Z,48.49
2019-05-14T10:02:19.647Z,48.47
2019-05-14T10:04:51.101Z,47.97
2019-05-14T10:07:22.507Z,46.66
2019-05-14T10:09:54.078Z,48.14
2019-05-14T10:12:25.464Z,47.88
2019-05-14T10:14:59.137Z,47.94
2019-05-14T10:17:29.782Z,46.91
2019-05-14T10:20:01.116Z,47.24
2019-05-14T10:22:33.409Z,47.05
2019-05-14T10:25:05.565Z,47.25
2019-05-14T10:27:36.950Z,46.80
2019-05-14T10:30:10.521Z,46.45
2019-05-14T10:32:42.083Z,47.44
2019-05-14T10:35:15.385Z,47.58
2019-05-14T10:37:46.795Z,45.98
2019-05-14T10:40:20.045Z,47.14
2019-05-14T10:42:51.478Z,48.34
2019-05-14T10:45:22.923Z,48.72
2019-05-14T10:47:54.374Z,47.72
2019-05-14T10:50:25.721Z,47.78
2019-05-14T10:52:59.487Z,46.88
2019-05-14T10:55:31.366Z,47.38
2019-05-14T10:58:02.905Z,47.63
2019-05-14T11:00:34.414Z,46.61
2019-05-14T11:03:05.730Z,46.98
2019-05-14T11:05:41.295Z,46.43
2019-05-14T11:08:12.022Z,46.51
2019-05-14T11:10:42.807Z,45.53
2019-05-14T11:13:14.316Z,46.62
2019-05-14T11:15:48.620Z,47.01
2019-05-14T11:18:20.147Z,45.50
2019-05-14T11:20:51.857Z,45.63
2019-05-14T11:23:23.499Z,46.09
2019-05-14T11:25:54.955Z,46.25
2019-05-14T11:28:28.707Z,46.21
2019-05-14T11:30:59.693Z,46.22
2019-05-14T11:33:31.048Z,46.69
2019-05-14T11:36:02.497Z,45.96
2019-05-14T11:38:37.495Z,47.01
2019-05-14T11:41:06.261Z,46.06
2019-05-14T11:43:39.837Z,46.65
2019-05-14T11:46:09.859Z,47.09
2019-05-14T11:48:41.107Z,47.96
2019-05-14T11:51:12.477Z,47.87
2019-05-14T11:53:43.881Z,48.11
2019-05-14T11:56:15.230Z,48.49
2019-05-14T11:58:46.604Z,48.55
2019-05-14T12:01:18.921Z,49.24
2019-05-14T12:03:50.942Z,48.90
2019-05-14T12:06:22.365Z,49.36
2019-05-14T12:08:53.817Z,49.10
2019-05-14T12:11:25.148Z,48.96
2019-05-14T12:13:59.649Z,50.04
2019-05-14T12:16:29.478Z,50.48
2019-05-14T12:19:00.727Z,50.44
2019-05-14T12:21:32.208Z,50.37
2019-05-14T12:24:06.012Z,50.48
2019-05-14T12:26:38.529Z,50.67
2019-05-14T12:29:10.271Z,51.13
2019-05-14T12:31:41.807Z,50.75
2019-05-14T12:34:13.235Z,50.75
2019-05-14T12:36:44.604Z,50.42
2019-05-14T12:39:18.609Z,50.71
2019-05-14T12:41:48.971Z,50.65
2019-05-14T12:44:21.888Z,50.65
2019-05-14T12:46:53.437Z,50.49
2019-05-14T12:49:25.024Z,50.43
2019-05-14T12:51:59.140Z,50.29
2019-05-14T12:54:29.969Z,49.76
2019-05-14T12:57:01.577Z,49.93
2019-05-14T12:59:33.231Z,49.68
2019-05-14T13:02:04.879Z,49.57
2019-05-14T13:04:36.393Z,49.33
2019-05-14T13:07:09.119Z,49.14
2019-05-14T13:09:40.830Z,49.14
2019-05-14T13:12:12.420Z,49.35
2019-05-14T13:14:43.854Z,48.88
2019-05-14T13:17:15.349Z,48.91
2019-05-14T13:19:48.715Z,49.04
2019-05-14T13:22:36.441Z,49.37
2019-05-14T13:24:52.056Z,49.24
2019-05-14T13:27:23.345Z,49.07
2019-05-14T13:29:54.798Z,49.09
2019-05-14T13:32:28.735Z,49.20
2019-05-14T13:34:59.184Z,49.25
2019-05-14T13:37:31.545Z,49.65
2019-05-14T13:40:03.636Z,49.23
2019-05-14T13:42:35.226Z,48.97
2019-05-14T13:45:10.249Z,49.11
2019-05-14T13:47:42.088Z,49.22
2019-05-14T13:50:14.170Z,49.19
2019-05-14T13:53:02.073Z,49.42
2019-05-14T13:55:20.175Z,48.69
2019-05-14T13:57:51.631Z,48.96
2019-05-14T14:00:23.797Z,48.89
2019-05-14T14:02:55.281Z,48.47
2019-05-14T14:05:26.622Z,48.66
2019-05-14T14:07:59.013Z,48.83
2019-05-14T14:10:36.201Z,48.89
2019-05-14T14:13:06.688Z,48.79
2019-05-14T14:15:38.472Z,48.33
2019-05-14T14:18:09.190Z,48.26
2019-05-14T14:20:40.625Z,48.61
2019-05-14T14:23:21.797Z,48.48
2019-05-14T14:25:44.496Z,48.41
2019-05-14T14:28:15.613Z,48.75
2019-05-14T14:30:49.174Z,48.25
2019-05-14T14:33:19.489Z,48.37
2019-05-14T14:35:50.670Z,48.79
2019-05-14T14:38:21.994Z,49.05
2019-05-14T14:40:53.358Z,48.36
2019-05-14T14:43:24.768Z,48.82
2019-05-14T14:45:59.374Z,48.96
2019-05-14T14:48:30.709Z,48.83
2019-05-14T14:51:02.391Z,48.35
2019-05-14T14:53:51.988Z,48.07
2019-05-14T14:56:09.370Z,48.61
2019-05-14T14:58:39.439Z,48.41
2019-05-14T15:01:10.816Z,48.73
2019-05-14T15:03:42.218Z,49.10
2019-05-14T15:06:13.844Z,49.16
2019-05-14T15:08:45.359Z,49.10
2019-05-14T15:11:16.808Z,49.02
2019-05-14T15:13:48.494Z,48.51
2019-05-14T15:16:20.464Z,48.40
2019-05-14T15:18:51.979Z,48.50
2019-05-14T15:21:23.434Z,48.38
2019-05-14T15:24:07.148Z,48.07
2019-05-14T15:26:28.885Z,48.29
2019-05-14T15:29:00.371Z,48.15
2019-05-14T15:31:32.148Z,48.28
2019-05-14T15:34:03.758Z,48.43
2019-05-14T15:36:35.107Z,48.54
2019-05-14T15:39:09.718Z,48.55
2019-05-14T15:41:41.195Z,48.75
2019-05-14T15:44:12.536Z,48.34
2019-05-14T15:46:43.884Z,47.56
2019-05-14T15:49:15.350Z,47.41
2019-05-14T15:51:46.784Z,46.85
2019-05-14T15:54:36.125Z,47.09
2019-05-14T15:56:51.113Z,46.62
2019-05-14T15:59:22.470Z,46.82
2019-05-14T16:01:53.986Z,46.77
2019-05-14T16:04:25.375Z,46.39
2019-05-14T16:06:58.635Z,46.49
2019-05-14T16:09:30.539Z,46.14
2019-05-14T16:12:01.970Z,46.12
2019-05-14T16:14:33.432Z,46.15
2019-05-14T16:17:04.984Z,46.48
2019-05-14T16:19:36.325Z,46.73
2019-05-14T16:22:09.773Z,46.60
2019-05-14T16:24:55.766Z,46.79
2019-05-14T16:27:13.059Z,46.89
2019-05-14T16:29:46.004Z,47.06
2019-05-14T16:32:17.689Z,47.35
2019-05-14T16:34:49.272Z,47.66
2019-05-14T16:37:21.314Z,48.12
2019-05-14T16:39:52.770Z,49.02
2019-05-14T16:42:25.232Z,49.83
2019-05-14T16:44:56.659Z,50.34
2019-05-14T16:47:28.758Z,51.00
2019-05-14T16:50:00.407Z,51.85
2019-05-14T16:52:31.742Z,52.08
2019-05-14T16:55:18.309Z,52.42
2019-05-14T16:57:38.667Z,52.76
2019-05-14T17:00:10.582Z,53.10
2019-05-14T17:02:41.883Z,53.41
2019-05-14T17:05:13.392Z,53.58
2019-05-14T17:07:44.770Z,53.35
2019-05-14T17:10:18.194Z,53.86
2019-05-14T17:12:56.687Z,53.32
2019-05-14T17:15:21.392Z,52.93
2019-05-14T17:17:52.919Z,52.86
2019-05-14T17:22:55.906Z,53.84
2019-05-14T17:25:30.342Z,53.49
2019-05-14T17:28:00.228Z,53.51
2019-05-14T17:30:31.783Z,54.20
2019-05-14T17:33:03.380Z,54.23
2019-05-14T17:35:34.819Z,54.35
2019-05-14T17:38:06.133Z,54.63
2019-05-14T17:40:39.683Z,55.38
2019-05-14T17:43:10.589Z,55.22
2019-05-14T17:45:42.089Z,55.76
2019-05-14T17:48:28.939Z,56.39
2019-05-14T17:51:00.496Z,56.91
2019-05-14T17:53:31.988Z,57.45
2019-05-14T17:56:03.301Z,57.47
2019-05-14T17:58:34.675Z,57.33
2019-05-14T18:01:08.807Z,57.36
2019-05-14T18:03:39.982Z,56.78
2019-05-14T18:06:12.001Z,56.79
2019-05-14T18:08:43.458Z,57.11
2019-05-14T18:11:14.854Z,57.41
2019-05-14T18:13:48.472Z,57.72
2019-05-14T18:16:20.367Z,58.03
2019-05-14T18:18:51.818Z,58.65
2019-05-14T18:21:23.318Z,58.65
2019-05-14T18:23:58.428Z,59.15
2019-05-14T18:26:30.821Z,59.27
2019-05-14T18:29:04.511Z,59.30
2019-05-14T18:31:35.434Z,59.29
2019-05-14T18:34:06.984Z,58.99
2019-05-14T18:36:39.516Z,59.13
2019-05-14T18:39:28.342Z,59.89
2019-05-14T18:42:00.812Z,59.41
2019-05-14T18:44:32.514Z,58.45
2019-05-14T18:47:03.999Z,58.53
2019-05-14T18:49:35.377Z,58.25
2019-05-14T18:52:08.936Z,58.90
2019-05-14T18:54:41.266Z,58.51
2019-05-14T18:57:18.032Z,58.39
2019-05-14T18:59:49.792Z,58.47
2019-05-14T19:02:21.225Z,58.88
2019-05-14T19:05:08.566Z,58.96
2019-05-14T19:07:51.420Z,59.02
2019-05-14T19:10:22.895Z,59.49
2019-05-14T19:12:54.551Z,60.07
2019-05-14T19:15:26.014Z,59.68
2019-05-14T19:18:00.996Z,59.47
2019-05-14T19:20:29.865Z,59.55
2019-05-14T19:23:01.166Z,59.89
2019-05-14T19:25:32.688Z,60.12
2019-05-14T19:28:04.147Z,60.25
2019-05-14T19:30:37.974Z,59.88
2019-05-14T19:33:08.708Z,59.89
2019-05-14T19:35:40.171Z,60.15
2019-05-14T19:38:14.367Z,60.76
2019-05-14T19:40:48.248Z,60.66
2019-05-14T19:43:19.179Z,60.88
2019-05-14T19:45:50.701Z,61.20
2019-05-14T19:48:22.302Z,60.96
2019-05-14T19:50:53.723Z,61.25
2019-05-14T19:53:25.044Z,61.27
2019-05-14T19:55:59.195Z,61.33
2019-05-14T19:58:29.708Z,61.42
2019-05-14T20:01:02.292Z,61.22
2019-05-14T20:03:33.859Z,62.20
2019-05-14T20:06:08.816Z,62.64
2019-05-14T20:08:39.557Z,62.65
2019-05-14T20:11:11.000Z,63.35
2019-05-14T20:13:42.395Z,62.75
2019-05-14T20:16:13.851Z,63.31
2019-05-14T20:18:45.192Z,63.11
2019-05-14T20:21:16.627Z,63.58
2019-05-14T20:23:48.271Z,63.39
2019-05-14T20:26:19.887Z,64.05
2019-05-14T20:28:51.308Z,66.65
2019-05-14T20:31:22.735Z,66.96
2019-05-14T20:33:54.215Z,66.84
2019-05-14T20:36:28.077Z,67.64
2019-05-14T20:38:59.016Z,67.80
2019-05-14T20:41:30.394Z,67.70
2019-05-14T20:44:01.846Z,67.74
2019-05-14T20:46:33.162Z,68.39
2019-05-14T20:49:05.036Z,68.45
2019-05-14T20:51:38.677Z,68.40
2019-05-14T20:54:09.404Z,68.76
2019-05-14T20:56:40.844Z,68.76
2019-05-14T20:59:12.293Z,68.94
2019-05-14T21:01:43.607Z,69.70
2019-05-14T21:04:14.992Z,70.39
2019-05-14T21:06:48.462Z,71.11
2019-05-14T21:09:19.482Z,71.70
2019-05-14T21:11:50.759Z,71.98
2019-05-14T21:14:25.090Z,71.57
2019-05-14T21:16:55.190Z,71.11
2019-05-14T21:19:28.316Z,72.96
2019-05-14T21:22:01.217Z,72.71
2019-05-14T21:24:32.695Z,72.26
2019-05-14T21:27:04.102Z,72.51
2019-05-14T21:29:35.446Z,72.58
2019-05-14T21:32:08.542Z,72.69
2019-05-14T21:34:39.964Z,72.62
2019-05-14T21:37:11.569Z,72.86
2019-05-14T21:39:43.132Z,72.86
2019-05-14T21:42:14.554Z,73.03
2019-05-14T21:44:45.994Z,73.38
2019-05-14T21:47:17.449Z,73.59
2019-05-14T21:49:50.375Z,73.75
2019-05-14T21:52:22.702Z,73.87
2019-05-14T21:54:54.146Z,74.04
2019-05-14T21:57:28.262Z,74.55
2019-05-14T21:59:59.002Z,74.53
2019-05-14T22:02:30.671Z,74.48
2019-05-14T22:05:03.391Z,74.30
2019-05-14T22:07:34.814Z,74.36
2019-05-14T22:10:07.810Z,74.20
2019-05-14T22:12:39.600Z,74.30
2019-05-14T22:15:11.483Z,74.64
2019-05-14T22:17:42.787Z,74.71
2019-05-14T22:20:14.809Z,74.50
2019-05-14T22:22:48.207Z,74.29
2019-05-14T22:25:19.188Z,74.64
2019-05-14T22:27:50.395Z,75.36
2019-05-14T22:30:21.842Z,75.60
2019-05-14T22:32:53.218Z,75.85
2019-05-14T22:35:24.635Z,75.59
2019-05-14T22:37:56.096Z,75.44
2019-05-14T22:40:29.218Z,74.27
2019-05-14T22:43:00.476Z,74.82
2019-05-14T22:45:31.796Z,74.29
2019-05-14T22:48:03.289Z,75.25
2019-05-14T22:50:34.676Z,75.99
2019-05-14T22:53:05.896Z,76.13
2019-05-14T22:55:38.230Z,76.07
2019-05-14T22:58:23.614Z,75.17
2019-05-14T23:00:46.995Z,72.89
2019-05-14T23:03:15.733Z,73.73
2019-05-14T23:05:48.514Z,75.79
2019-05-14T23:08:19.896Z,74.70
2019-05-14T23:10:51.214Z,74.87
2019-05-14T23:13:22.523Z,73.97
2019-05-14T23:15:53.819Z,73.59
2019-05-14T23:18:25.014Z,74.14
2019-05-14T23:20:58.692Z,74.87
2019-05-14T23:23:29.346Z,75.09
2019-05-14T23:26:00.722Z,75.42
2019-05-14T23:28:41.873Z,73.51
2019-05-14T23:31:05.079Z,73.23
2019-05-14T23:33:38.633Z,72.90
2019-05-14T23:36:09.560Z,73.69
2019-05-14T23:38:41.068Z,73.47
2019-05-14T23:41:12.545Z,72.19
2019-05-14T23:43:43.842Z,71.58
2019-05-14T23:46:15.116Z,71.66
2019-05-14T23:48:48.470Z,71.56
2019-05-14T23:51:19.555Z,70.74
2019-05-14T23:53:50.718Z,70.10
2019-05-14T23:56:22.018Z,70.26
2019-05-14T23:58:57.906Z,70.65
